Time;durP1;ratioP1;P1;durP2;ratioP2;P2;SDS_P1;SDS_P2;PMS_P1;PMS_P2;Temp;Humidity;BMP_temperature;BMP_pressure;BME280_temperature;BME280_humidity;BME280_pressure;Samples;Min_cycle;Max_cycle;Signal;HPM_P1;HPM_P2
2021/08/29 00:00:20;;;;;;;24.50;16.25;;;;;;;;;;5158865;27;20031;-87
2021/08/29 00:02:46;;;;;;;26.13;19.70;;;;;;;;;;5228822;22;20058;-87
2021/08/29 00:05:12;;;;;;;22.77;20.38;;;;;;;;;;5160449;27;20025;-87
2021/08/29 00:07:37;;;;;;;22.02;16.02;;;;;;;;;;5157008;27;20450;-87
2021/08/29 00:10:03;;;;;;;20.90;18.08;;;;;;;;;;5157243;27;20035;-87
2021/08/29 00:12:29;;;;;;;21.27;15.95;;;;;;;;;;5155674;27;20027;-87
2021/08/29 00:14:55;;;;;;;19.27;15.60;;;;;;;;;;5157129;27;20022;-86
2021/08/29 00:17:20;;;;;;;21.13;16.60;;;;;;;;;;5157169;27;20015;-86
2021/08/29 00:19:46;;;;;;;20.30;17.77;;;;;;;;;;5155536;27;20015;-86
2021/08/29 00:22:12;;;;;;;17.55;15.32;;;;;;;;;;5155219;27;20034;-84
2021/08/29 00:24:37;;;;;;;18.63;15.10;;;;;;;;;;5156445;27;20022;-87
2021/08/29 00:27:03;;;;;;;18.15;13.57;;;;;;;;;;5156447;27;20054;-85
2021/08/29 00:29:29;;;;;;;21.10;16.33;;;;;;;;;;5156393;27;20382;-86
2021/08/29 00:31:54;;;;;;;18.02;14.02;;;;;;;;;;5155086;27;20137;-87
2021/08/29 00:34:20;;;;;;;21.25;18.48;;;;;;;;;;5156371;27;20047;-87
2021/08/29 00:36:46;;;;;;;22.33;15.73;;;;;;;;;;5156270;27;20038;-86
2021/08/29 00:39:12;;;;;;;21.25;16.25;;;;;;;;;;5156122;27;20036;-87
2021/08/29 00:41:40;;;;;;;19.73;15.23;;;;;;;;;;5156383;27;20023;-87
2021/08/29 00:44:05;;;;;;;21.98;16.48;;;;;;;;;;5156050;27;20023;-87
2021/08/29 00:46:32;;;;;;;20.38;16.05;;;;;;;;;;5154938;27;20477;-87
2021/08/29 00:48:58;;;;;;;20.60;14.93;;;;;;;;;;5155894;27;20033;-87
2021/08/29 00:51:23;;;;;;;20.15;16.55;;;;;;;;;;5155932;27;20386;-87
2021/08/29 00:53:53;;;;;;;21.88;16.00;;;;;;;;;;5155967;27;20474;-85
2021/08/29 00:56:19;;;;;;;;;;;;;;;;;;5154928;27;20378;-86
2021/08/29 00:58:49;;;;;;;23.90;19.15;;;;;;;;;;5155901;27;19915;-86
2021/08/29 01:01:17;;;;;;;22.05;16.20;;;;;;;;;;5154519;27;20022;-86
2021/08/29 01:03:45;;;;;;;26.05;20.90;;;;;;;;;;5155729;27;20035;-86
2021/08/29 01:06:22;;;;;;;24.70;18.23;;;;;;;;;;5155252;27;20105;-87
2021/08/29 01:08:55;;;;;;;22.10;14.77;;;;;;;;;;5155659;27;20014;-87
2021/08/29 01:11:25;;;;;;;21.50;16.00;;;;;;;;;;5155773;27;20531;-86
2021/08/29 01:13:57;;;;;;;23.85;17.63;;;;;;;;;;5155882;27;20106;-87
2021/08/29 01:16:23;;;;;;;25.73;20.55;;;;;;;;;;5154197;27;20382;-86
2021/08/29 01:18:54;;;;;;;27.48;20.17;;;;;;;;;;5155482;27;20044;-86
2021/08/29 01:21:25;;;;;;;31.15;25.27;;;;;;;;;;5155454;27;20466;-86
2021/08/29 01:23:56;;;;;;;31.48;24.08;;;;;;;;;;5155415;27;20029;-84
2021/08/29 01:26:55;;;;;;;27.70;22.20;;;;;;;;;;5155599;27;20026;-86
2021/08/29 01:29:27;;;;;;;27.88;22.70;;;;;;;;;;5155325;27;20061;-86
2021/08/29 01:31:53;;;;;;;28.65;22.27;;;;;;;;;;5155291;27;20542;-87
2021/08/29 01:34:19;;;;;;;29.13;22.00;;;;;;;;;;5155226;27;20019;-86
2021/08/29 01:36:48;;;;;;;23.77;18.95;;;;;;;;;;5155421;27;20030;-87
2021/08/29 01:39:14;;;;;;;21.27;19.05;;;;;;;;;;5155422;27;20023;-85
2021/08/29 01:41:43;;;;;;;23.90;20.08;;;;;;;;;;5155256;27;20023;-86
2021/08/29 01:44:10;;;;;;;18.67;14.40;;;;;;;;;;5155074;27;20050;-87
2021/08/29 01:46:38;;;;;;;20.55;16.80;;;;;;;;;;5155184;27;20062;-87
2021/08/29 01:49:06;;;;;;;25.55;16.00;;;;;;;;;;5153720;27;20026;-88
2021/08/29 01:51:32;;;;;;;19.40;14.52;;;;;;;;;;5155144;27;20023;-85
2021/08/29 01:53:58;;;;;;;18.45;15.05;;;;;;;;;;5154927;27;20488;-87
2021/08/29 01:56:24;;;;;;;20.33;16.85;;;;;;;;;;5155224;27;20018;-87
2021/08/29 01:58:50;;;;;;;24.80;20.25;;;;;;;;;;5155085;27;20023;-87
2021/08/29 02:01:16;;;;;;;23.80;18.73;;;;;;;;;;5154971;27;20019;-87
2021/08/29 02:03:43;;;;;;;27.10;21.83;;;;;;;;;;5154785;27;20045;-86
2021/08/29 02:06:18;;;;;;;30.17;19.65;;;;;;;;;;5155109;27;20474;-86
2021/08/29 02:09:01;;;;;;;26.70;18.50;;;;;;;;;;5155152;27;20018;-86
2021/08/29 02:11:30;;;;;;;26.77;22.83;;;;;;;;;;5155621;27;20026;-87
2021/08/29 02:13:57;;;;;;;;;;;;;;;;;;5155813;27;20526;-86
2021/08/29 02:16:23;;;;;;;26.75;16.50;;;;;;;;;;5156788;27;19918;-86
2021/08/29 02:18:53;;;;;;;25.92;21.00;;;;;;;;;;5159291;27;20038;-87
2021/08/29 02:21:20;;;;;;;28.73;18.20;;;;;;;;;;5159175;27;20064;-87
2021/08/29 02:23:46;;;;;;;31.95;25.70;;;;;;;;;;5157514;27;20027;-87
2021/08/29 02:26:15;;;;;;;31.23;22.75;;;;;;;;;;5159146;27;20344;-86
2021/08/29 02:28:40;;;;;;;28.77;20.67;;;;;;;;;;5158920;27;20424;-86
2021/08/29 02:31:07;;;;;;;31.67;25.63;;;;;;;;;;5158771;27;20027;-86
2021/08/29 02:33:33;;;;;;;24.48;20.27;;;;;;;;;;5158629;27;20026;-86
2021/08/29 02:36:00;;;;;;;30.23;22.67;;;;;;;;;;5158682;27;20075;-86
2021/08/29 02:38:26;;;;;;;28.90;22.90;;;;;;;;;;5158693;27;20467;-86
2021/08/29 02:40:55;;;;;;;32.80;25.00;;;;;;;;;;5158543;27;20106;-85
2021/08/29 02:43:23;;;;;;;31.58;22.92;;;;;;;;;;5158529;27;20519;-87
2021/08/29 02:45:49;;;;;;;37.15;28.83;;;;;;;;;;5158700;27;20038;-86
2021/08/29 02:48:16;;;;;;;34.30;24.67;;;;;;;;;;5158446;27;20022;-86
2021/08/29 02:50:44;;;;;;;28.23;21.60;;;;;;;;;;5158508;27;20048;-87
2021/08/29 02:53:10;;;;;;;38.13;28.38;;;;;;;;;;5158339;27;20019;-84
2021/08/29 02:55:38;;;;;;;41.08;24.55;;;;;;;;;;5158300;27;20022;-86
2021/08/29 02:58:06;;;;;;;32.13;23.92;;;;;;;;;;5158198;27;20023;-87
2021/08/29 03:00:32;;;;;;;27.20;21.88;;;;;;;;;;5158108;27;20029;-86
2021/08/29 03:02:58;;;;;;;24.48;20.80;;;;;;;;;;5158082;27;20549;-87
2021/08/29 03:05:24;;;;;;;22.88;19.52;;;;;;;;;;5157950;27;20062;-86
2021/08/29 03:07:51;;;;;;;23.63;19.90;;;;;;;;;;5158074;27;20480;-86
2021/08/29 03:10:17;;;;;;;25.48;19.45;;;;;;;;;;5156618;27;20038;-86
2021/08/29 03:12:44;;;;;;;40.92;26.55;;;;;;;;;;5157904;27;20023;-86
2021/08/29 03:15:11;;;;;;;33.47;23.05;;;;;;;;;;5157957;27;20494;-87
2021/08/29 03:17:37;;;;;;;40.00;24.85;;;;;;;;;;5156476;27;20493;-86
2021/08/29 03:20:07;;;;;;;37.35;24.70;;;;;;;;;;5158023;27;20023;-87
2021/08/29 03:22:33;;;;;;;;;;;;;;;;;;5158461;27;20023;-87
2021/08/29 03:24:59;;;;;;;32.30;21.58;;;;;;;;;;5157695;27;20331;-83
2021/08/29 03:27:25;;;;;;;29.45;21.83;;;;;;;;;;5157092;27;20023;-86
2021/08/29 03:29:51;;;;;;;42.67;22.77;;;;;;;;;;5156270;27;20054;-87
2021/08/29 03:32:19;;;;;;;31.33;18.92;;;;;;;;;;5157703;27;20408;-86
2021/08/29 03:34:46;;;;;;;30.17;21.00;;;;;;;;;;5157440;27;20022;-87
2021/08/29 03:37:12;;;;;;;52.45;23.88;;;;;;;;;;5156247;27;20050;-86
2021/08/29 03:39:38;;;;;;;30.10;20.88;;;;;;;;;;5156160;27;20029;-86
2021/08/29 03:42:04;;;;;;;25.15;20.33;;;;;;;;;;5157426;27;20136;-86
2021/08/29 03:44:30;;;;;;;25.00;18.65;;;;;;;;;;5157404;27;20591;-84
2021/08/29 03:46:56;;;;;;;23.15;20.05;;;;;;;;;;5157296;27;20023;-86
2021/08/29 03:49:23;;;;;;;21.60;19.25;;;;;;;;;;5157176;27;20482;-86
2021/08/29 03:51:48;;;;;;;25.10;19.88;;;;;;;;;;5157469;27;20109;-86
2021/08/29 03:54:15;;;;;;;29.10;18.23;;;;;;;;;;5157233;27;20093;-86
2021/08/29 03:56:41;;;;;;;24.50;19.48;;;;;;;;;;5157514;27;20516;-85
2021/08/29 03:59:07;;;;;;;20.90;16.63;;;;;;;;;;5157484;27;20385;-85
2021/08/29 04:01:33;;;;;;;23.80;18.25;;;;;;;;;;5155616;27;20046;-86
2021/08/29 04:03:59;;;;;;;23.13;18.02;;;;;;;;;;5155519;27;20493;-86
2021/08/29 04:06:26;;;;;;;23.23;19.02;;;;;;;;;;5156939;27;20027;-86
2021/08/29 04:08:55;;;;;;;24.63;19.80;;;;;;;;;;5156820;27;20046;-86
2021/08/29 04:11:23;;;;;;;28.38;20.40;;;;;;;;;;5156803;27;20023;-86
2021/08/29 04:13:51;;;;;;;24.40;20.73;;;;;;;;;;5156696;27;20521;-86
2021/08/29 04:16:18;;;;;;;25.63;20.77;;;;;;;;;;5156658;27;20030;-86
2021/08/29 04:18:45;;;;;;;25.45;16.98;;;;;;;;;;5156523;27;20022;-85
2021/08/29 04:21:12;;;;;;;23.38;17.05;;;;;;;;;;5156852;27;20378;-85
2021/08/29 04:23:37;;;;;;;23.35;18.67;;;;;;;;;;5156502;27;20386;-85
2021/08/29 04:26:05;;;;;;;24.27;17.20;;;;;;;;;;5155058;27;20018;-84
2021/08/29 04:28:31;;;;;;;25.55;20.58;;;;;;;;;;5156973;27;20023;-86
2021/08/29 04:31:00;;;;;;;21.65;16.55;;;;;;;;;;5156633;27;20121;-86
2021/08/29 04:33:26;;;;;;;22.35;17.33;;;;;;;;;;5156367;27;20374;-87
2021/08/29 04:35:53;;;;;;;23.88;16.67;;;;;;;;;;5156275;27;20030;-86
2021/08/29 04:38:19;;;;;;;19.92;14.50;;;;;;;;;;5156618;27;20014;-86
2021/08/29 04:40:45;;;;;;;24.90;17.38;;;;;;;;;;5155249;27;20083;-86
2021/08/29 04:43:11;;;;;;;28.50;22.63;;;;;;;;;;5156155;27;20482;-86
2021/08/29 04:45:36;;;;;;;24.55;16.40;;;;;;;;;;5156109;27;20027;-84
2021/08/29 04:48:02;;;;;;;23.92;19.98;;;;;;;;;;5156021;27;20048;-87
2021/08/29 04:50:29;;;;;;;26.58;21.77;;;;;;;;;;5155907;27;20027;-85
2021/08/29 04:52:55;;;;;;;23.75;16.42;;;;;;;;;;5155948;27;20102;-87
2021/08/29 04:55:21;;;;;;;25.90;19.83;;;;;;;;;;5155840;27;20050;-86
2021/08/29 04:57:46;;;;;;;25.65;20.98;;;;;;;;;;5155842;27;20068;-85
2021/08/29 05:00:12;;;;;;;25.48;18.90;;;;;;;;;;5155836;27;20023;-87
2021/08/29 05:02:38;;;;;;;20.95;15.90;;;;;;;;;;5155514;27;20029;-86
2021/08/29 05:05:04;;;;;;;24.25;20.05;;;;;;;;;;5155784;27;20111;-86
2021/08/29 05:07:30;;;;;;;24.65;18.98;;;;;;;;;;5154831;27;20026;-84
2021/08/29 05:09:55;;;;;;;19.27;14.85;;;;;;;;;;5154299;27;20034;-86
2021/08/29 05:12:21;;;;;;;24.33;17.83;;;;;;;;;;5155606;27;20022;-85
2021/08/29 05:14:47;;;;;;;21.98;15.60;;;;;;;;;;5155616;27;20023;-86
2021/08/29 05:17:12;;;;;;;22.70;15.43;;;;;;;;;;5155666;27;20018;-85
2021/08/29 05:19:38;;;;;;;21.02;14.43;;;;;;;;;;5154258;27;20026;-85
2021/08/29 05:22:04;;;;;;;22.85;15.60;;;;;;;;;;5155555;27;20018;-85
2021/08/29 05:24:29;;;;;;;21.88;16.50;;;;;;;;;;5154602;27;20049;-86
2021/08/29 05:26:55;;;;;;;19.52;15.60;;;;;;;;;;5155420;27;20019;-86
2021/08/29 05:29:20;;;;;;;22.33;16.63;;;;;;;;;;5155265;27;20101;-87
2021/08/29 05:31:46;;;;;;;17.73;13.40;;;;;;;;;;5154351;27;20027;-87
2021/08/29 05:34:12;;;;;;;20.77;12.38;;;;;;;;;;5155373;27;20023;-85
2021/08/29 05:36:37;;;;;;;18.58;14.77;;;;;;;;;;5155794;27;20029;-86
2021/08/29 05:39:03;;;;;;;21.75;14.63;;;;;;;;;;5155557;27;20038;-85
2021/08/29 05:41:28;;;;;;;20.20;17.42;;;;;;;;;;5155413;27;20416;-86
2021/08/29 05:43:54;;;;;;;19.30;14.63;;;;;;;;;;5155127;27;20025;-87
2021/08/29 05:46:20;;;;;;;16.60;13.23;;;;;;;;;;5155119;27;20035;-86
2021/08/29 05:48:47;;;;;;;20.02;15.23;;;;;;;;;;5155425;27;20412;-85
2021/08/29 05:51:13;;;;;;;19.10;15.32;;;;;;;;;;5154826;27;20105;-86
2021/08/29 05:53:39;;;;;;;19.17;12.75;;;;;;;;;;5155052;27;20034;-87
2021/08/29 05:56:04;;;;;;;16.55;13.40;;;;;;;;;;5156058;27;20053;-84
2021/08/29 05:58:30;;;;;;;16.60;13.02;;;;;;;;;;5155010;27;20044;-84
2021/08/29 06:00:55;;;;;;;16.80;11.02;;;;;;;;;;5155037;27;20371;-85
2021/08/29 06:03:21;;;;;;;15.50;9.20;;;;;;;;;;5154793;27;20117;-84
2021/08/29 06:05:47;;;;;;;16.65;11.52;;;;;;;;;;5153763;27;20053;-84
2021/08/29 06:08:12;;;;;;;17.40;10.52;;;;;;;;;;5154927;27;20065;-84
2021/08/29 06:10:38;;;;;;;15.07;10.23;;;;;;;;;;5153554;27;20019;-86
2021/08/29 06:13:03;;;;;;;16.60;13.05;;;;;;;;;;5153656;27;20023;-86
2021/08/29 06:15:29;;;;;;;18.45;10.23;;;;;;;;;;5154982;27;20019;-88
2021/08/29 06:17:55;;;;;;;13.93;9.52;;;;;;;;;;5153760;27;20068;-88
2021/08/29 06:20:20;;;;;;;13.07;9.05;;;;;;;;;;5153575;27;20377;-86
2021/08/29 06:22:46;;;;;;;12.95;11.38;;;;;;;;;;5154855;27;20030;-88
2021/08/29 06:25:11;;;;;;;16.73;9.52;;;;;;;;;;5154949;27;20075;-87
2021/08/29 06:27:37;;;;;;;14.25;9.85;;;;;;;;;;5154892;27;20023;-87
2021/08/29 06:30:04;;;;;;;13.63;8.98;;;;;;;;;;5154700;27;20474;-85
2021/08/29 06:32:29;;;;;;;12.90;8.88;;;;;;;;;;5154915;27;20449;-85
2021/08/29 06:34:55;;;;;;;11.50;8.15;;;;;;;;;;5153406;27;20050;-87
2021/08/29 06:37:20;;;;;;;14.25;9.00;;;;;;;;;;5154881;27;20057;-87
2021/08/29 06:39:46;;;;;;;10.05;7.90;;;;;;;;;;5154956;27;20026;-87
2021/08/29 06:42:12;;;;;;;10.50;6.93;;;;;;;;;;5154956;27;20489;-87
2021/08/29 06:44:37;;;;;;;11.63;8.57;;;;;;;;;;5154689;27;20019;-86
2021/08/29 06:47:03;;;;;;;13.93;8.70;;;;;;;;;;5153219;27;20019;-86
2021/08/29 06:49:29;;;;;;;12.30;9.90;;;;;;;;;;5154736;27;20062;-83
2021/08/29 06:51:54;;;;;;;14.68;9.27;;;;;;;;;;5155328;27;20026;-85
2021/08/29 06:54:20;;;;;;;12.57;7.82;;;;;;;;;;5154781;27;20031;-85
2021/08/29 06:56:45;;;;;;;12.35;8.75;;;;;;;;;;5154531;27;20031;-87
2021/08/29 06:59:11;;;;;;;14.15;10.77;;;;;;;;;;5154706;27;20171;-87
2021/08/29 07:01:37;;;;;;;11.13;7.00;;;;;;;;;;5154604;27;20355;-87
2021/08/29 07:04:03;;;;;;;11.30;7.85;;;;;;;;;;5156748;27;20039;-86
2021/08/29 07:06:29;;;;;;;12.82;9.00;;;;;;;;;;5158815;27;20489;-87
2021/08/29 07:08:54;;;;;;;23.50;7.50;;;;;;;;;;5158068;27;20023;-85
2021/08/29 07:11:20;;;;;;;13.25;7.45;;;;;;;;;;5158014;27;20132;-86
2021/08/29 07:13:45;;;;;;;10.63;5.45;;;;;;;;;;5157944;27;20083;-84
2021/08/29 07:16:11;;;;;;;11.43;7.10;;;;;;;;;;5158109;27;20102;-86
2021/08/29 07:18:37;;;;;;;11.48;8.18;;;;;;;;;;5157901;27;20093;-87
2021/08/29 07:21:02;;;;;;;8.95;5.47;;;;;;;;;;5158157;27;20030;-86
2021/08/29 07:23:29;;;;;;;9.93;6.70;;;;;;;;;;5157879;27;20419;-85
2021/08/29 07:25:56;;;;;;;9.68;6.57;;;;;;;;;;5157623;27;20049;-87
2021/08/29 07:28:21;;;;;;;9.52;6.85;;;;;;;;;;5157851;27;20030;-85
2021/08/29 07:30:47;;;;;;;8.32;6.00;;;;;;;;;;5157583;27;20027;-84
2021/08/29 07:33:13;;;;;;;8.25;5.88;;;;;;;;;;5156296;27;20026;-86
2021/08/29 07:35:40;;;;;;;9.65;6.15;;;;;;;;;;5157772;27;20019;-86
2021/08/29 07:38:06;;;;;;;11.43;6.63;;;;;;;;;;5157765;27;20038;-87
2021/08/29 07:40:32;;;;;;;8.82;6.53;;;;;;;;;;5157584;27;20019;-86
2021/08/29 07:42:58;;;;;;;10.52;7.07;;;;;;;;;;5156064;27;20050;-86
2021/08/29 07:45:26;;;;;;;7.82;5.90;;;;;;;;;;5156041;27;20054;-86
2021/08/29 07:47:52;;;;;;;9.77;6.18;;;;;;;;;;5157596;27;20458;-87
2021/08/29 07:50:22;;;;;;;7.63;4.63;;;;;;;;;;5157719;27;20050;-86
2021/08/29 07:52:48;;;;;;;9.07;6.05;;;;;;;;;;5157107;27;20030;-86
2021/08/29 07:55:14;;;;;;;10.70;6.35;;;;;;;;;;5155773;27;20058;-85
2021/08/29 07:57:40;;;;;;;9.32;5.40;;;;;;;;;;5157118;27;20053;-87
2021/08/29 08:00:06;;;;;;;8.18;6.22;;;;;;;;;;5157043;27;20363;-87
2021/08/29 08:02:32;;;;;;;9.00;6.32;;;;;;;;;;5156802;27;20023;-87
2021/08/29 08:04:57;;;;;;;8.52;5.55;;;;;;;;;;5157278;27;20033;-86
2021/08/29 08:07:23;;;;;;;9.85;5.90;;;;;;;;;;5157071;27;20026;-86
2021/08/29 08:09:49;;;;;;;8.80;5.70;;;;;;;;;;5155955;27;20275;-84
2021/08/29 08:12:15;;;;;;;9.20;6.53;;;;;;;;;;5137038;27;20027;-88
2021/08/29 08:14:40;;;;;;;9.02;5.80;;;;;;;;;;5152227;27;20485;-85
2021/08/29 08:17:07;;;;;;;9.88;5.50;;;;;;;;;;5157128;27;20065;-85
2021/08/29 08:19:33;;;;;;;8.98;5.47;;;;;;;;;;5156763;27;20065;-88
2021/08/29 08:22:00;;;;;;;9.25;5.65;;;;;;;;;;5156769;27;20019;-85
2021/08/29 08:24:26;;;;;;;8.45;5.80;;;;;;;;;;5156760;27;20019;-85
2021/08/29 08:26:51;;;;;;;9.23;5.38;;;;;;;;;;5154901;27;20026;-87
2021/08/29 08:29:17;;;;;;;8.95;4.65;;;;;;;;;;5148041;27;20080;-85
2021/08/29 08:31:43;;;;;;;7.80;4.47;;;;;;;;;;5156341;27;20019;-84
2021/08/29 08:34:08;;;;;;;9.02;4.75;;;;;;;;;;5156288;27;20411;-84
2021/08/29 08:36:34;;;;;;;8.20;4.53;;;;;;;;;;5156309;27;20022;-84
2021/08/29 08:39:00;;;;;;;7.75;4.55;;;;;;;;;;5156281;27;20026;-84
2021/08/29 08:41:27;;;;;;;8.93;3.63;;;;;;;;;;5156278;27;20026;-84
2021/08/29 08:43:53;;;;;;;7.10;4.10;;;;;;;;;;5156320;27;20023;-84
2021/08/29 08:46:19;;;;;;;8.77;4.03;;;;;;;;;;5156366;27;20027;-84
2021/08/29 08:48:48;;;;;;;10.77;4.72;;;;;;;;;;5156348;27;20034;-84
2021/08/29 08:51:21;;;;;;;10.35;4.60;;;;;;;;;;5162239;27;20072;-83
2021/08/29 08:53:50;;;;;;;8.32;5.10;;;;;;;;;;5165710;27;20042;-84
2021/08/29 08:56:18;;;;;;;8.40;5.43;;;;;;;;;;5170160;27;20019;-83
2021/08/29 08:58:45;;;;;;;11.10;4.28;;;;;;;;;;5173945;27;20033;-83
2021/08/29 09:01:10;;;;;;;8.02;4.82;;;;;;;;;;5173530;27;20027;-83
2021/08/29 09:03:37;;;;;;;10.50;4.35;;;;;;;;;;5172755;27;20067;-83
2021/08/29 09:06:05;;;;;;;10.20;4.22;;;;;;;;;;5166324;27;20035;-84
2021/08/29 09:08:31;;;;;;;7.10;4.55;;;;;;;;;;5155954;27;20052;-84
2021/08/29 09:10:57;;;;;;;9.63;5.47;;;;;;;;;;5155773;27;20030;-84
2021/08/29 09:13:23;;;;;;;10.20;5.45;;;;;;;;;;5155689;27;20458;-84
2021/08/29 09:15:48;;;;;;;7.35;3.88;;;;;;;;;;5154342;27;20029;-84
2021/08/29 09:18:14;;;;;;;9.98;4.07;;;;;;;;;;5155617;27;20122;-84
2021/08/29 09:20:40;;;;;;;8.52;3.63;;;;;;;;;;5155457;27;20019;-84
2021/08/29 09:23:09;;;;;;;9.68;3.85;;;;;;;;;;5155605;27;20023;-84
2021/08/29 09:25:40;;;;;;;8.27;4.30;;;;;;;;;;5155125;27;20026;-84
2021/08/29 09:28:10;;;;;;;8.70;5.15;;;;;;;;;;5154241;27;20031;-84
2021/08/29 09:30:41;;;;;;;10.20;5.20;;;;;;;;;;5154008;27;20027;-83
2021/08/29 09:33:06;;;;;;;7.85;5.85;;;;;;;;;;5155584;27;20142;-84
2021/08/29 09:35:34;;;;;;;8.55;4.13;;;;;;;;;;5155582;27;20023;-84
2021/08/29 09:38:02;;;;;;;9.50;4.97;;;;;;;;;;5155257;27;20019;-84
2021/08/29 09:40:28;;;;;;;11.07;3.42;;;;;;;;;;5155531;27;20019;-84
2021/08/29 09:42:55;;;;;;;9.55;5.55;;;;;;;;;;5155343;27;20030;-85
2021/08/29 09:45:29;;;;;;;12.88;4.20;;;;;;;;;;5155405;27;20497;-84
2021/08/29 09:48:02;;;;;;;6.72;3.65;;;;;;;;;;5155434;27;20023;-84
2021/08/29 09:50:28;;;;;;;8.75;4.57;;;;;;;;;;5155203;27;20501;-83
2021/08/29 09:53:03;;;;;;;11.77;5.55;;;;;;;;;;5155314;27;20026;-84
2021/08/29 09:55:35;;;;;;;11.25;6.03;;;;;;;;;;5154615;27;20435;-84
2021/08/29 09:58:19;;;;;;;9.70;4.95;;;;;;;;;;5155218;27;20027;-84
2021/08/29 10:01:02;;;;;;;11.18;5.57;;;;;;;;;;5155301;27;20044;-84
2021/08/29 10:03:29;;;;;;;10.77;4.97;;;;;;;;;;5154775;27;20091;-83
2021/08/29 10:06:15;;;;;;;10.50;5.97;;;;;;;;;;5155030;27;20023;-84
2021/08/29 10:08:47;;;;;;;8.77;4.43;;;;;;;;;;5155278;27;20023;-84
2021/08/29 10:11:14;;;;;;;13.13;5.63;;;;;;;;;;5153485;27;20357;-83
2021/08/29 10:13:40;;;;;;;10.30;6.53;;;;;;;;;;5153595;27;20423;-84
2021/08/29 10:16:07;;;;;;;12.88;5.75;;;;;;;;;;5148620;27;20027;-84
2021/08/29 10:18:53;;;;;;;15.40;5.45;;;;;;;;;;5145376;27;20020;-85
2021/08/29 10:21:23;;;;;;;7.95;5.32;;;;;;;;;;5132981;28;20054;-84
2021/08/29 10:23:52;;;;;;;11.57;5.82;;;;;;;;;;5145524;27;20031;-86
2021/08/29 10:26:20;;;;;;;11.55;4.20;;;;;;;;;;5148307;27;20027;-85
2021/08/29 10:28:57;;;;;;;7.93;5.25;;;;;;;;;;5147732;27;20539;-84
2021/08/29 10:31:29;;;;;;;9.73;5.38;;;;;;;;;;5148269;27;20088;-85
2021/08/29 10:33:55;;;;;;;10.10;5.93;;;;;;;;;;5139447;27;20023;-85
2021/08/29 10:36:23;;;;;;;7.75;4.28;;;;;;;;;;5133936;27;20024;-84
2021/08/29 10:38:49;;;;;;;10.45;4.40;;;;;;;;;;5136150;27;20023;-84
2021/08/29 10:41:21;;;;;;;12.07;7.25;;;;;;;;;;5137951;27;20375;-84
2021/08/29 10:43:51;;;;;;;11.43;5.03;;;;;;;;;;5145225;27;20056;-84
2021/08/29 10:46:19;;;;;;;9.90;4.53;;;;;;;;;;5146485;27;20021;-84
2021/08/29 10:48:48;;;;;;;11.88;4.75;;;;;;;;;;5140167;27;20054;-84
2021/08/29 10:51:17;;;;;;;10.32;5.32;;;;;;;;;;5137547;27;20110;-84
2021/08/29 10:53:54;;;;;;;9.95;6.88;;;;;;;;;;5138054;27;20491;-85
2021/08/29 10:56:22;;;;;;;8.27;4.90;;;;;;;;;;5136273;27;20055;-84
2021/08/29 10:59:09;;;;;;;9.77;5.38;;;;;;;;;;5137616;27;20072;-84
2021/08/29 11:01:45;;;;;;;12.00;6.70;;;;;;;;;;5137420;27;20019;-84
2021/08/29 11:04:20;;;;;;;11.73;6.05;;;;;;;;;;5137314;27;20555;-85
2021/08/29 11:07:11;;;;;;;9.68;6.65;;;;;;;;;;5138425;27;20074;-85
2021/08/29 11:09:38;;;;;;;11.88;5.18;;;;;;;;;;5153948;27;20042;-85
2021/08/29 11:12:06;;;;;;;12.57;6.47;;;;;;;;;;5158162;27;20019;-85
2021/08/29 11:14:49;;;;;;;12.88;6.90;;;;;;;;;;5158089;27;20410;-85
2021/08/29 11:17:36;;;;;;;8.60;5.65;;;;;;;;;;5158213;27;20060;-84
2021/08/29 11:20:01;;;;;;;11.43;6.80;;;;;;;;;;5158005;27;20019;-84
2021/08/29 11:22:28;;;;;;;11.63;7.65;;;;;;;;;;5157971;27;20373;-85
2021/08/29 11:24:58;;;;;;;13.02;5.82;;;;;;;;;;5158064;27;20109;-84
2021/08/29 11:27:37;;;;;;;9.35;6.22;;;;;;;;;;5157858;27;20481;-84
2021/08/29 11:30:10;;;;;;;11.32;5.93;;;;;;;;;;5157702;27;20045;-85
2021/08/29 11:32:44;;;;;;;14.60;7.32;;;;;;;;;;5157906;27;20071;-85
2021/08/29 11:35:24;;;;;;;9.30;6.03;;;;;;;;;;5157916;27;20023;-85
2021/08/29 11:38:13;;;;;;;9.75;7.05;;;;;;;;;;5157832;27;20484;-85
2021/08/29 11:40:51;;;;;;;14.48;5.55;;;;;;;;;;5155182;27;20460;-84
2021/08/29 11:43:20;;;;;;;11.95;5.95;;;;;;;;;;5135429;27;20126;-85
2021/08/29 11:45:58;;;;;;;11.98;5.15;;;;;;;;;;5148266;27;20026;-85
2021/08/29 11:48:26;;;;;;;10.23;6.28;;;;;;;;;;5157200;27;20046;-85
2021/08/29 11:50:52;;;;;;;12.45;6.53;;;;;;;;;;5157303;27;20065;-85
2021/08/29 11:53:18;;;;;;;11.05;5.55;;;;;;;;;;5157284;27;20050;-85
2021/08/29 11:55:44;;;;;;;9.75;6.07;;;;;;;;;;5157502;27;20027;-85
2021/08/29 11:58:20;;;;;;;10.65;5.40;;;;;;;;;;5157207;27;20015;-84
2021/08/29 12:00:47;;;;;;;9.35;4.82;;;;;;;;;;5157855;27;20034;-86
2021/08/29 12:03:15;;;;;;;11.13;5.60;;;;;;;;;;5156943;27;20091;-85
2021/08/29 12:06:28;;;;;;;13.48;6.85;;;;;;;;;;5157113;27;20151;-85
2021/08/29 12:09:21;;;;;;;13.68;6.78;;;;;;;;;;5073136;28;20488;-85
2021/08/29 12:11:47;;;;;;;14.00;6.90;;;;;;;;;;5073050;28;20119;-85
2021/08/29 12:14:28;;;;;;;13.93;6.63;;;;;;;;;;5071476;28;20028;-85
2021/08/29 12:17:03;;;;;;;16.02;5.90;;;;;;;;;;5072747;28;20025;-85
2021/08/29 12:19:32;;;;;;;11.65;5.80;;;;;;;;;;5072778;28;20032;-85
2021/08/29 12:21:59;;;;;;;;;;;;;;;;;;5073131;28;20035;-85
2021/08/29 12:24:31;;;;;;;;;;;;;;;;;;5073121;28;20006;-85
2021/08/29 12:27:02;;;;;;;;;;;;;;;;;;5072964;28;19922;-85
2021/08/29 12:29:28;;;;;;;;;;;;;;;;;;5072889;28;20002;-85
2021/08/29 12:32:04;;;;;;;;;;;;;;;;;;5072941;28;19956;-84
2021/08/29 12:34:30;;;;;;;;;;;;;;;;;;5072909;28;19912;-84
2021/08/29 12:37:07;;;;;;;10.85;5.93;;;;;;;;;;5072227;28;19912;-85
2021/08/29 12:39:33;;;;;;;13.55;6.05;;;;;;;;;;5072475;28;20459;-85
2021/08/29 12:42:16;;;;;;;15.20;6.63;;;;;;;;;;5072404;28;20115;-86
2021/08/29 12:44:41;;;;;;;13.00;7.25;;;;;;;;;;5104630;27;20035;-85
2021/08/29 12:47:08;;;;;;;10.35;5.25;;;;;;;;;;5156083;27;20071;-85
2021/08/29 12:49:33;;;;;;;11.95;5.85;;;;;;;;;;5156363;27;20019;-85
2021/08/29 12:52:00;;;;;;;8.55;5.10;;;;;;;;;;5156175;27;20489;-84
2021/08/29 12:54:26;;;;;;;13.63;6.45;;;;;;;;;;5156151;27;20098;-85
2021/08/29 12:56:52;;;;;;;11.82;9.40;;;;;;;;;;5154918;27;20465;-83
2021/08/29 12:59:28;;;;;;;10.13;5.13;;;;;;;;;;5155944;27;20047;-85
2021/08/29 13:01:55;;;;;;;15.60;7.20;;;;;;;;;;5155443;27;20466;-85
2021/08/29 13:04:25;;;;;;;9.40;5.78;;;;;;;;;;5155699;27;20038;-84
2021/08/29 13:07:23;;;;;;;;;;;;;;;;;;5156329;27;20042;-85
2021/08/29 13:09:51;;;;;;;;;;;;;;;;;;5121447;27;20396;-85
2021/08/29 13:12:21;;;;;;;;;;;;;;;;;;5156316;27;19911;-85
2021/08/29 13:14:47;;;;;;;;;;;;;;;;;;5156078;27;19915;-85
2021/08/29 13:17:14;;;;;;;;;;;;;;;;;;5156079;27;19911;-85
2021/08/29 13:19:40;;;;;;;;;;;;;;;;;;5155987;27;19910;-85
2021/08/29 13:22:05;;;;;;;;;;;;;;;;;;5156204;27;20373;-85
2021/08/29 13:24:31;;;;;;;;;;;;;;;;;;5156124;27;19990;-85
2021/08/29 13:26:58;;;;;;;;;;;;;;;;;;5155988;27;19914;-85
2021/08/29 13:29:36;;;;;;;;;;;;;;;;;;5154499;27;20006;-85
2021/08/29 13:32:02;;;;;;;;;;;;;;;;;;5149660;27;20251;-85
2021/08/29 13:34:30;;;;;;;;;;;;;;;;;;5156083;27;19963;-85
2021/08/29 13:36:56;;;;;;;;;;;;;;;;;;5155757;27;20478;-85
2021/08/29 13:39:24;;;;;;;;;;;;;;;;;;5155752;27;19915;-85
2021/08/29 13:42:06;;;;;;;;;;;;;;;;;;5155731;27;19911;-86
2021/08/29 13:44:31;;;;;;;;;;;;;;;;;;5156011;27;19911;-85
2021/08/29 13:47:01;;;;;;;;;;;;;;;;;;5155718;27;19933;-85
2021/08/29 13:49:26;;;;;;;;;;;;;;;;;;5154293;27;20263;-85
2021/08/29 13:51:52;;;;;;;;;;;;;;;;;;5155650;27;19915;-86
2021/08/29 13:54:17;;;;;;;;;;;;;;;;;;5155902;27;19911;-86
2021/08/29 13:56:42;;;;;;;;;;;;;;;;;;5155665;27;19949;-84
2021/08/29 13:59:08;;;;;;;;;;;;;;;;;;5155366;27;19911;-85
2021/08/29 14:01:33;;;;;;;;;;;;;;;;;;5155702;27;19918;-85
2021/08/29 14:03:59;;;;;;;;;;;;;;;;;;5147626;27;19914;-85
2021/08/29 14:06:24;;;;;;;;;;;;;;;;;;5155808;27;20326;-85
2021/08/29 14:08:49;;;;;;;;;;;;;;;;;;5155408;27;19911;-85
2021/08/29 14:11:15;;;;;;;;;;;;;;;;;;5155719;27;20319;-85
2021/08/29 14:13:40;;;;;;;;;;;;;;;;;;5152776;27;19936;-86
2021/08/29 14:16:06;;;;;;;;;;;;;;;;;;5149221;27;19947;-85
2021/08/29 14:18:32;;;;;;;;;;;;;;;;;;5142788;27;19915;-86
2021/08/29 14:20:58;;;;;;;;;;;;;;;;;;5155385;27;19911;-84
2021/08/29 14:23:23;;;;;;;;;;;;;;;;;;5159389;27;19911;-86
2021/08/29 14:25:49;;;;;;;;;;;;;;;;;;5159307;27;19918;-85
2021/08/29 14:28:14;;;;;;;;;;;;;;;;;;5159608;27;19918;-85
2021/08/29 14:30:40;;;;;;;;;;;;;;;;;;5153415;27;20331;-85
2021/08/29 14:33:07;;;;;;;;;;;;;;;;;;5155282;27;19911;-85
2021/08/29 14:35:32;;;;;;;;;;;;;;;;;;5159242;27;19929;-84
2021/08/29 14:37:58;;;;;;;;;;;;;;;;;;5159215;27;20358;-85
2021/08/29 14:40:23;;;;;;;;;;;;;;;;;;5159129;27;20325;-84
2021/08/29 14:42:49;;;;;;;;;;;;;;;;;;5159176;27;19911;-84
2021/08/29 14:45:14;;;;;;;;;;;;;;;;;;5159066;27;19956;-85
2021/08/29 14:47:40;;;;;;;;;;;;;;;;;;5159164;27;19914;-85